sensor_id;sensor_type;location;lat;lon;timestamp;pressure;altitude;pressure_sealevel;temperature;humidity
7018;BME280;3549;42.162;24.726;2023-09-18T00:00:53;47642.09;;;-141.97;67.29
7018;BME280;3549;42.162;24.726;2023-09-18T00:03:20;47686.31;;;-141.97;67.50
7018;BME280;3549;42.162;24.726;2023-09-18T00:05:48;47551.75;;;-141.97;67.27
7018;BME280;3549;42.162;24.726;2023-09-18T00:08:14;47474.88;;;-141.97;67.28
7018;BME280;3549;42.162;24.726;2023-09-18T00:10:40;47665.16;;;-141.97;67.15
7018;BME280;3549;42.162;24.726;2023-09-18T00:13:05;47432.59;;;-141.97;67.95
7018;BME280;3549;42.162;24.726;2023-09-18T00:15:31;47484.47;;;-141.97;67.67
7018;BME280;3549;42.162;24.726;2023-09-18T00:17:56;47509.47;;;-141.97;67.48
7018;BME280;3549;42.162;24.726;2023-09-18T00:20:22;47503.69;;;-141.97;67.44
7018;BME280;3549;42.162;24.726;2023-09-18T00:22:54;47457.56;;;-141.97;67.47
7018;BME280;3549;42.162;24.726;2023-09-18T00:25:21;47426.81;;;-141.97;67.32
7018;BME280;3549;42.162;24.726;2023-09-18T00:27:47;47522.91;;;-141.97;67.25
7018;BME280;3549;42.162;24.726;2023-09-18T00:30:12;47674.78;;;-141.97;67.53
7018;BME280;3549;42.162;24.726;2023-09-18T00:32:37;47497.94;;;-141.97;67.87
7018;BME280;3549;42.162;24.726;2023-09-18T00:35:03;47409.53;;;-141.97;67.86
7018;BME280;3549;42.162;24.726;2023-09-18T00:37:29;47665.16;;;-141.97;67.57
7018;BME280;3549;42.162;24.726;2023-09-18T00:39:54;47717.06;;;-141.97;67.59
7018;BME280;3549;42.162;24.726;2023-09-18T00:42:19;47411.44;;;-141.97;67.73
7018;BME280;3549;42.162;24.726;2023-09-18T00:44:47;47453.72;;;-141.97;67.56
7018;BME280;3549;42.162;24.726;2023-09-18T00:47:14;47717.06;;;-141.97;67.36
7018;BME280;3549;42.162;24.726;2023-09-18T00:49:41;47432.59;;;-141.97;67.29
7018;BME280;3549;42.162;24.726;2023-09-18T00:52:09;47661.31;;;-141.97;67.21
7018;BME280;3549;42.162;24.726;2023-09-18T00:54:36;47538.28;;;-141.97;67.35
7018;BME280;3549;42.162;24.726;2023-09-18T00:57:03;47557.53;;;-141.97;67.42
7018;BME280;3549;42.162;24.726;2023-09-18T00:59:29;47488.31;;;-141.97;67.34
7018;BME280;3549;42.162;24.726;2023-09-18T01:01:54;47576.75;;;-141.97;68.21
7018;BME280;3549;42.162;24.726;2023-09-18T01:04:21;47438.34;;;-141.97;68.21
7018;BME280;3549;42.162;24.726;2023-09-18T01:06:46;47620.94;;;-141.97;68.15
7018;BME280;3549;42.162;24.726;2023-09-18T01:09:18;47692.06;;;-141.97;67.70
7018;BME280;3549;42.162;24.726;2023-09-18T01:17:17;47788.19;;;-141.97;66.65
7018;BME280;3549;42.162;24.726;2023-09-18T01:19:44;47534.44;;;-141.97;66.65
7018;BME280;3549;42.162;24.726;2023-09-18T01:22:18;47699.75;;;-141.97;66.60
7018;BME280;3549;42.162;24.726;2023-09-18T01:24:45;47670.91;;;-141.97;66.85
7018;BME280;3549;42.162;24.726;2023-09-18T01:27:13;47576.75;;;-141.97;66.29
7018;BME280;3549;42.162;24.726;2023-09-18T01:29:40;47701.69;;;-141.97;66.97
7018;BME280;3549;42.162;24.726;2023-09-18T01:32:05;47519.06;;;-141.97;67.03
7018;BME280;3549;42.162;24.726;2023-09-18T01:34:33;47453.72;;;-141.97;67.10
7018;BME280;3549;42.162;24.726;2023-09-18T01:37:02;47570.97;;;-141.97;67.00
7018;BME280;3549;42.162;24.726;2023-09-18T01:39:29;47472.94;;;-141.97;67.20
7018;BME280;3549;42.162;24.726;2023-09-18T01:42:01;47595.97;;;-141.97;66.80
7018;BME280;3549;42.162;24.726;2023-09-18T01:44:27;47501.78;;;-141.97;66.50
7018;BME280;3549;42.162;24.726;2023-09-18T01:46:53;47565.22;;;-141.97;66.10
7018;BME280;3549;42.162;24.726;2023-09-18T01:49:29;47530.59;;;-141.97;66.02
7018;BME280;3549;42.162;24.726;2023-09-18T01:51:55;47590.19;;;-141.97;65.42
7018;BME280;3549;42.162;24.726;2023-09-18T01:54:20;47557.53;;;-141.97;65.00
7018;BME280;3549;42.162;24.726;2023-09-18T01:56:46;47584.44;;;-141.97;65.48
7018;BME280;3549;42.162;24.726;2023-09-18T01:59:11;47499.84;;;-141.97;65.72
7018;BME280;3549;42.162;24.726;2023-09-18T02:01:36;47534.44;;;-141.97;65.88
7018;BME280;3549;42.162;24.726;2023-09-18T02:04:04;47447.97;;;-141.97;65.88
7018;BME280;3549;42.162;24.726;2023-09-18T02:06:29;47619.03;;;-141.97;65.85
7018;BME280;3549;42.162;24.726;2023-09-18T02:08:55;47638.25;;;-141.97;65.35
7018;BME280;3549;42.162;24.726;2023-09-18T02:11:20;47588.28;;;-141.97;65.44
7018;BME280;3549;42.162;24.726;2023-09-18T02:13:46;47569.06;;;-141.97;65.27
7018;BME280;3549;42.162;24.726;2023-09-18T02:16:11;47542.16;;;-141.97;65.44
7018;BME280;3549;42.162;24.726;2023-09-18T02:18:37;47503.69;;;-141.97;65.24
7018;BME280;3549;42.162;24.726;2023-09-18T02:21:02;47507.53;;;-141.97;65.16
7018;BME280;3549;42.162;24.726;2023-09-18T02:23:28;47572.91;;;-141.97;65.25
7018;BME280;3549;42.162;24.726;2023-09-18T02:25:57;47303.81;;;-141.97;65.14
7018;BME280;3549;42.162;24.726;2023-09-18T02:28:23;47422.97;;;-141.97;65.60
7018;BME280;3549;42.162;24.726;2023-09-18T02:30:48;47474.88;;;-141.97;65.88
7018;BME280;3549;42.162;24.726;2023-09-18T02:33:15;47349.94;;;-141.97;65.59
7018;BME280;3549;42.162;24.726;2023-09-18T02:35:40;47426.81;;;-141.97;65.67
7018;BME280;3549;42.162;24.726;2023-09-18T02:38:06;47620.94;;;-141.97;65.09
7018;BME280;3549;42.162;24.726;2023-09-18T02:40:31;47561.38;;;-141.97;65.01
7018;BME280;3549;42.162;24.726;2023-09-18T02:42:56;47453.72;;;-141.97;64.90
7018;BME280;3549;42.162;24.726;2023-09-18T02:45:22;47751.66;;;-141.97;64.95
7018;BME280;3549;42.162;24.726;2023-09-18T02:47:48;47340.34;;;-141.97;64.49
7018;BME280;3549;42.162;24.726;2023-09-18T02:50:13;47532.53;;;-141.97;64.42
7018;BME280;3549;42.162;24.726;2023-09-18T02:52:38;47511.38;;;-141.97;64.58
7018;BME280;3549;42.162;24.726;2023-09-18T02:55:04;47574.81;;;-141.97;64.28
7018;BME280;3549;42.162;24.726;2023-09-18T02:57:30;47576.75;;;-141.97;63.76
7018;BME280;3549;42.162;24.726;2023-09-18T02:59:55;47670.91;;;-141.97;64.05
7018;BME280;3549;42.162;24.726;2023-09-18T03:02:21;47588.28;;;-141.97;64.41
7018;BME280;3549;42.162;24.726;2023-09-18T03:04:46;47553.69;;;-141.97;64.56
7018;BME280;3549;42.162;24.726;2023-09-18T03:07:14;47449.88;;;-141.97;64.28
7018;BME280;3549;42.162;24.726;2023-09-18T03:09:41;47561.38;;;-141.97;64.30
7018;BME280;3549;42.162;24.726;2023-09-18T03:12:07;47499.84;;;-141.97;64.09
7018;BME280;3549;42.162;24.726;2023-09-18T03:14:32;47669.00;;;-141.97;64.10
7018;BME280;3549;42.162;24.726;2023-09-18T03:16:58;47532.53;;;-141.97;63.86
7018;BME280;3549;42.162;24.726;2023-09-18T03:19:23;47426.81;;;-141.97;64.16
7018;BME280;3549;42.162;24.726;2023-09-18T03:21:50;47455.66;;;-141.97;63.87
7018;BME280;3549;42.162;24.726;2023-09-18T03:24:15;47386.47;;;-141.97;64.00
7018;BME280;3549;42.162;24.726;2023-09-18T03:26:40;47484.47;;;-141.97;63.85
7018;BME280;3549;42.162;24.726;2023-09-18T03:29:06;47438.34;;;-141.97;63.66
7018;BME280;3549;42.162;24.726;2023-09-18T03:31:31;47676.69;;;-141.97;63.67
7018;BME280;3549;42.162;24.726;2023-09-18T03:33:57;47449.88;;;-141.97;63.40
7018;BME280;3549;42.162;24.726;2023-09-18T03:36:22;47438.34;;;-141.97;63.40
7018;BME280;3549;42.162;24.726;2023-09-18T03:38:50;47630.56;;;-141.97;63.56
7018;BME280;3549;42.162;24.726;2023-09-18T03:41:16;47576.75;;;-141.97;63.71
7018;BME280;3549;42.162;24.726;2023-09-18T03:43:41;47751.66;;;-141.97;64.05
7018;BME280;3549;42.162;24.726;2023-09-18T03:46:07;47557.53;;;-141.97;63.85
7018;BME280;3549;42.162;24.726;2023-09-18T03:48:33;47569.06;;;-141.97;63.99
7018;BME280;3549;42.162;24.726;2023-09-18T03:51:05;47432.59;;;-141.97;63.81
7018;BME280;3549;42.162;24.726;2023-09-18T03:53:34;47699.75;;;-141.97;63.67
7018;BME280;3549;42.162;24.726;2023-09-18T03:56:00;47421.06;;;-141.97;63.77
7018;BME280;3549;42.162;24.726;2023-09-18T03:58:25;47559.44;;;-141.97;63.88
7018;BME280;3549;42.162;24.726;2023-09-18T04:00:52;47480.63;;;-141.97;64.05
7018;BME280;3549;42.162;24.726;2023-09-18T04:03:17;47584.44;;;-141.97;64.34
7018;BME280;3549;42.162;24.726;2023-09-18T04:05:43;47363.41;;;-141.97;65.35
7018;BME280;3549;42.162;24.726;2023-09-18T04:08:08;47576.75;;;-141.97;65.02
7018;BME280;3549;42.162;24.726;2023-09-18T04:10:34;47349.94;;;-141.97;65.16
7018;BME280;3549;42.162;24.726;2023-09-18T04:13:00;47440.28;;;-141.97;64.75
7018;BME280;3549;42.162;24.726;2023-09-18T04:15:25;47517.16;;;-141.97;64.49
7018;BME280;3549;42.162;24.726;2023-09-18T04:17:50;47401.84;;;-141.97;64.41
7018;BME280;3549;42.162;24.726;2023-09-18T04:20:16;47753.56;;;-141.97;64.26
7018;BME280;3549;42.162;24.726;2023-09-18T04:22:46;47592.13;;;-141.97;64.35
7018;BME280;3549;42.162;24.726;2023-09-18T04:25:15;47421.06;;;-141.97;64.18
7018;BME280;3549;42.162;24.726;2023-09-18T04:27:41;47513.31;;;-141.97;63.85
7018;BME280;3549;42.162;24.726;2023-09-18T04:30:07;47563.28;;;-141.97;63.91
7018;BME280;3549;42.162;24.726;2023-09-18T04:32:36;47759.34;;;-141.97;63.78
7018;BME280;3549;42.162;24.726;2023-09-18T04:35:01;47461.41;;;-141.97;63.92
7018;BME280;3549;42.162;24.726;2023-09-18T04:37:26;47463.34;;;-141.97;63.35
7018;BME280;3549;42.162;24.726;2023-09-18T04:39:52;47726.66;;;-141.97;63.56
7018;BME280;3549;42.162;24.726;2023-09-18T04:42:17;47553.69;;;-141.97;63.33
7018;BME280;3549;42.162;24.726;2023-09-18T04:44:43;47515.22;;;-141.97;63.07
7018;BME280;3549;42.162;24.726;2023-09-18T04:47:09;47740.13;;;-141.97;63.41
7018;BME280;3549;42.162;24.726;2023-09-18T04:49:34;47323.03;;;-141.97;63.71
7018;BME280;3549;42.162;24.726;2023-09-18T04:52:00;47342.25;;;-141.97;63.47
7018;BME280;3549;42.162;24.726;2023-09-18T04:54:25;47538.28;;;-141.97;63.09
7018;BME280;3549;42.162;24.726;2023-09-18T04:56:50;47738.19;;;-141.97;62.97
7018;BME280;3549;42.162;24.726;2023-09-18T04:59:16;47407.59;;;-141.97;62.61
7018;BME280;3549;42.162;24.726;2023-09-18T05:01:41;47542.16;;;-141.97;62.49
7018;BME280;3549;42.162;24.726;2023-09-18T05:04:07;47738.19;;;-141.97;62.34
7018;BME280;3549;42.162;24.726;2023-09-18T05:06:33;47561.38;;;-141.97;61.51
7018;BME280;3549;42.162;24.726;2023-09-18T05:08:58;47522.91;;;-141.97;62.32
7018;BME280;3549;42.162;24.726;2023-09-18T05:11:24;47488.31;;;-141.97;62.11
7018;BME280;3549;42.162;24.726;2023-09-18T05:13:49;47576.75;;;-141.97;61.93
7018;BME280;3549;42.162;24.726;2023-09-18T05:16:16;47453.72;;;-141.97;61.69
7018;BME280;3549;42.162;24.726;2023-09-18T05:18:42;47551.75;;;-141.97;61.79
7018;BME280;3549;42.162;24.726;2023-09-18T05:21:08;47534.44;;;-141.97;61.36
7018;BME280;3549;42.162;24.726;2023-09-18T05:23:35;47549.84;;;-141.97;61.28
7018;BME280;3549;42.162;24.726;2023-09-18T05:26:00;47578.66;;;-141.97;61.16
7018;BME280;3549;42.162;24.726;2023-09-18T05:28:26;47734.34;;;-141.97;60.78
7018;BME280;3549;42.162;24.726;2023-09-18T05:30:51;47676.69;;;-141.97;60.77
7018;BME280;3549;42.162;24.726;2023-09-18T05:33:18;47584.44;;;-141.97;60.18
7018;BME280;3549;42.162;24.726;2023-09-18T05:35:44;47626.72;;;-141.97;59.90
7018;BME280;3549;42.162;24.726;2023-09-18T05:38:13;47482.56;;;-141.97;60.46
7018;BME280;3549;42.162;24.726;2023-09-18T05:40:40;47453.72;;;-141.97;60.35
7018;BME280;3549;42.162;24.726;2023-09-18T05:43:05;47553.69;;;-141.97;60.56
7018;BME280;3549;42.162;24.726;2023-09-18T05:45:32;47388.38;;;-141.97;60.29
7018;BME280;3549;42.162;24.726;2023-09-18T05:47:59;47576.75;;;-141.97;59.64
7018;BME280;3549;42.162;24.726;2023-09-18T05:50:30;47565.22;;;-141.97;59.11
7018;BME280;3549;42.162;24.726;2023-09-18T05:52:57;47594.03;;;-141.97;59.06
7018;BME280;3549;42.162;24.726;2023-09-18T05:55:26;47492.16;;;-141.97;58.61
7018;BME280;3549;42.162;24.726;2023-09-18T05:57:53;47515.22;;;-141.97;57.64
7018;BME280;3549;42.162;24.726;2023-09-18T06:00:18;47334.56;;;-141.97;56.85
7018;BME280;3549;42.162;24.726;2023-09-18T06:02:44;47476.78;;;-141.97;56.25
7018;BME280;3549;42.162;24.726;2023-09-18T06:05:10;47373.00;;;-141.97;56.33
7018;BME280;3549;42.162;24.726;2023-09-18T06:07:41;47553.69;;;-141.97;55.80
7018;BME280;3549;42.162;24.726;2023-09-18T06:10:07;47488.31;;;-141.97;57.79
7018;BME280;3549;42.162;24.726;2023-09-18T06:12:33;47563.28;;;-141.97;57.33
7018;BME280;3549;42.162;24.726;2023-09-18T06:14:58;47513.31;;;-141.97;57.03
7018;BME280;3549;42.162;24.726;2023-09-18T06:17:24;47522.91;;;-141.97;55.38
7018;BME280;3549;42.162;24.726;2023-09-18T06:19:49;47317.28;;;-141.97;54.31
7018;BME280;3549;42.162;24.726;2023-09-18T06:22:15;47442.19;;;-141.97;53.50
7018;BME280;3549;42.162;24.726;2023-09-18T06:24:41;47565.22;;;-141.97;52.57
7018;BME280;3549;42.162;24.726;2023-09-18T06:27:06;47594.03;;;-141.97;52.98
7018;BME280;3549;42.162;24.726;2023-09-18T06:29:32;47499.84;;;-141.97;51.79
7018;BME280;3549;42.162;24.726;2023-09-18T06:31:58;47367.25;;;-141.97;51.48
7018;BME280;3549;42.162;24.726;2023-09-18T06:34:24;47538.28;;;-141.97;51.78
7018;BME280;3549;42.162;24.726;2023-09-18T06:36:50;47417.22;;;-141.97;50.97
7018;BME280;3549;42.162;24.726;2023-09-18T06:39:15;47465.25;;;-141.97;52.04
7018;BME280;3549;42.162;24.726;2023-09-18T06:41:41;47446.03;;;-141.97;52.15
7018;BME280;3549;42.162;24.726;2023-09-18T06:44:07;47738.19;;;-141.97;51.65
7018;BME280;3549;42.162;24.726;2023-09-18T06:46:32;47546.00;;;-141.97;51.99
7018;BME280;3549;42.162;24.726;2023-09-18T06:48:57;47484.47;;;-141.97;52.86
7018;BME280;3549;42.162;24.726;2023-09-18T06:51:25;47557.53;;;-141.97;52.63
7018;BME280;3549;42.162;24.726;2023-09-18T06:53:51;47519.06;;;-141.97;53.21
7018;BME280;3549;42.162;24.726;2023-09-18T06:56:16;47521.00;;;-141.97;53.06
7018;BME280;3549;42.162;24.726;2023-09-18T06:58:41;47649.78;;;-141.97;53.62
7018;BME280;3549;42.162;24.726;2023-09-18T07:01:07;47538.28;;;-141.97;52.82
7018;BME280;3549;42.162;24.726;2023-09-18T07:03:33;47453.72;;;-141.97;51.82
7018;BME280;3549;42.162;24.726;2023-09-18T07:06:00;47584.44;;;-141.97;51.79
7018;BME280;3549;42.162;24.726;2023-09-18T07:08:26;47499.84;;;-141.97;50.57
7018;BME280;3549;42.162;24.726;2023-09-18T07:10:51;47330.72;;;-141.97;50.51
7018;BME280;3549;42.162;24.726;2023-09-18T07:13:17;47463.34;;;-141.97;48.15
7018;BME280;3549;42.162;24.726;2023-09-18T07:15:42;47728.59;;;-141.97;46.92
7018;BME280;3549;42.162;24.726;2023-09-18T07:18:09;47530.59;;;-141.97;47.38
7018;BME280;3549;42.162;24.726;2023-09-18T07:20:39;47503.69;;;-141.97;47.40
7018;BME280;3549;42.162;24.726;2023-09-18T07:23:05;47503.69;;;-141.97;46.65
7018;BME280;3549;42.162;24.726;2023-09-18T07:25:30;47486.41;;;-141.97;46.14
7018;BME280;3549;42.162;24.726;2023-09-18T07:27:56;47451.81;;;-141.97;46.03
7018;BME280;3549;42.162;24.726;2023-09-18T07:30:21;47540.22;;;-141.97;46.56
7018;BME280;3549;42.162;24.726;2023-09-18T07:32:47;47426.81;;;-141.97;45.78
7018;BME280;3549;42.162;24.726;2023-09-18T07:35:12;47499.84;;;-141.97;44.83
7018;BME280;3549;42.162;24.726;2023-09-18T07:37:41;47244.25;;;-141.97;44.65
7018;BME280;3549;42.162;24.726;2023-09-18T07:40:09;47292.28;;;-141.97;45.10
7018;BME280;3549;42.162;24.726;2023-09-18T07:42:35;47684.38;;;-141.97;46.00
7018;BME280;3549;42.162;24.726;2023-09-18T07:45:00;47367.25;;;-141.97;46.59
7018;BME280;3549;42.162;24.726;2023-09-18T07:47:26;47509.47;;;-141.97;46.01
7018;BME280;3549;42.162;24.726;2023-09-18T07:49:51;47494.09;;;-141.97;47.49
7018;BME280;3549;42.162;24.726;2023-09-18T07:52:17;47507.53;;;-141.97;47.46
7018;BME280;3549;42.162;24.726;2023-09-18T07:54:43;47509.47;;;-141.97;46.47
7018;BME280;3549;42.162;24.726;2023-09-18T07:57:09;47434.50;;;-141.97;46.23
7018;BME280;3549;42.162;24.726;2023-09-18T07:59:37;47647.84;;;-141.97;45.12
7018;BME280;3549;42.162;24.726;2023-09-18T08:02:04;47286.53;;;-141.97;43.93
7018;BME280;3549;42.162;24.726;2023-09-18T08:04:33;47503.69;;;-141.97;45.08
7018;BME280;3549;42.162;24.726;2023-09-18T08:06:59;47407.59;;;-141.97;46.13
7018;BME280;3549;42.162;24.726;2023-09-18T08:09:25;47703.59;;;-141.97;46.62
7018;BME280;3549;42.162;24.726;2023-09-18T08:11:51;47457.56;;;-141.97;47.35
7018;BME280;3549;42.162;24.726;2023-09-18T08:14:21;47692.06;;;-141.97;47.19
7018;BME280;3549;42.162;24.726;2023-09-18T08:16:46;47507.53;;;-141.97;46.31
7018;BME280;3549;42.162;24.726;2023-09-18T08:19:15;47446.03;;;-141.97;44.43
7018;BME280;3549;42.162;24.726;2023-09-18T08:21:42;47740.13;;;-141.97;43.84
7018;BME280;3549;42.162;24.726;2023-09-18T08:24:07;47330.72;;;-141.97;44.02
7018;BME280;3549;42.162;24.726;2023-09-18T08:26:33;47619.03;;;-141.97;42.79
7018;BME280;3549;42.162;24.726;2023-09-18T08:28:58;47407.59;;;-141.97;42.06
7018;BME280;3549;42.162;24.726;2023-09-18T08:31:24;47469.09;;;-141.97;40.78
7018;BME280;3549;42.162;24.726;2023-09-18T08:33:52;47317.28;;;-141.97;41.01
7018;BME280;3549;42.162;24.726;2023-09-18T08:36:18;47472.94;;;-141.97;41.00
7018;BME280;3549;42.162;24.726;2023-09-18T08:38:43;47403.75;;;-141.97;40.48
7018;BME280;3549;42.162;24.726;2023-09-18T08:41:11;47549.84;;;-141.97;42.25
7018;BME280;3549;42.162;24.726;2023-09-18T08:43:39;47553.69;;;-141.97;42.09
7018;BME280;3549;42.162;24.726;2023-09-18T08:46:08;47319.19;;;-141.97;42.37
7018;BME280;3549;42.162;24.726;2023-09-18T08:48:35;47603.66;;;-141.97;41.13
7018;BME280;3549;42.162;24.726;2023-09-18T08:51:05;47690.16;;;-141.97;41.30
7018;BME280;3549;42.162;24.726;2023-09-18T08:53:32;47388.38;;;-141.97;42.57
7018;BME280;3549;42.162;24.726;2023-09-18T08:55:59;47465.25;;;-141.97;42.92
7018;BME280;3549;42.162;24.726;2023-09-18T08:58:29;47346.09;;;-141.97;42.57
7018;BME280;3549;42.162;24.726;2023-09-18T09:00:57;47449.88;;;-141.97;42.11
7018;BME280;3549;42.162;24.726;2023-09-18T09:03:23;47317.28;;;-141.97;42.39
7018;BME280;3549;42.162;24.726;2023-09-18T09:05:48;47594.03;;;-141.97;42.11
7018;BME280;3549;42.162;24.726;2023-09-18T09:08:14;47726.66;;;-141.97;41.95
7018;BME280;3549;42.162;24.726;2023-09-18T09:10:40;47367.25;;;-141.97;41.47
7018;BME280;3549;42.162;24.726;2023-09-18T09:13:06;47405.69;;;-141.97;39.78
7018;BME280;3549;42.162;24.726;2023-09-18T09:15:43;47373.00;;;-141.97;39.16
7018;BME280;3549;42.162;24.726;2023-09-18T09:18:14;47426.81;;;-141.97;40.69
7018;BME280;3549;42.162;24.726;2023-09-18T09:20:40;47476.78;;;-141.97;41.10
7018;BME280;3549;42.162;24.726;2023-09-18T09:23:09;47594.03;;;-141.97;40.98
7018;BME280;3549;42.162;24.726;2023-09-18T09:25:35;47422.97;;;-141.97;40.98
7018;BME280;3549;42.162;24.726;2023-09-18T09:28:05;47438.34;;;-141.97;40.23
7018;BME280;3549;42.162;24.726;2023-09-18T09:30:32;47367.25;;;-141.97;40.30
7018;BME280;3549;42.162;24.726;2023-09-18T09:32:59;47624.78;;;-141.97;40.08
7018;BME280;3549;42.162;24.726;2023-09-18T09:35:26;47338.41;;;-141.97;40.07
7018;BME280;3549;42.162;24.726;2023-09-18T09:37:57;47444.13;;;-141.97;39.22
7018;BME280;3549;42.162;24.726;2023-09-18T09:40:23;47569.06;;;-141.97;38.23
7018;BME280;3549;42.162;24.726;2023-09-18T09:42:52;47424.91;;;-141.97;37.52
7018;BME280;3549;42.162;24.726;2023-09-18T09:45:19;47442.19;;;-141.97;36.67
7018;BME280;3549;42.162;24.726;2023-09-18T09:47:45;47422.97;;;-141.97;36.09
7018;BME280;3549;42.162;24.726;2023-09-18T09:50:14;47432.59;;;-141.97;36.82
7018;BME280;3549;42.162;24.726;2023-09-18T09:52:46;47438.34;;;-141.97;37.47
7018;BME280;3549;42.162;24.726;2023-09-18T09:55:26;47415.28;;;-141.97;37.23
7018;BME280;3549;42.162;24.726;2023-09-18T09:57:57;47419.13;;;-141.97;35.97
7018;BME280;3549;42.162;24.726;2023-09-18T10:00:49;47369.16;;;-141.97;36.30
7018;BME280;3549;42.162;24.726;2023-09-18T10:03:18;47357.63;;;-141.97;36.02
7018;BME280;3549;42.162;24.726;2023-09-18T10:05:46;47415.28;;;-141.97;36.40
7018;BME280;3549;42.162;24.726;2023-09-18T10:08:21;47221.19;;;-141.97;37.29
7018;BME280;3549;42.162;24.726;2023-09-18T10:10:49;47417.22;;;-141.97;36.99
7018;BME280;3549;42.162;24.726;2023-09-18T10:13:18;47371.09;;;-141.97;36.53
7018;BME280;3549;42.162;24.726;2023-09-18T10:15:47;47594.03;;;-141.97;36.49
7018;BME280;3549;42.162;24.726;2023-09-18T10:20:44;47453.72;;;-141.97;38.53
7018;BME280;3549;42.162;24.726;2023-09-18T10:23:21;47419.13;;;-141.97;38.43
7018;BME280;3549;42.162;24.726;2023-09-18T10:25:53;47567.13;;;-141.97;38.70
7018;BME280;3549;42.162;24.726;2023-09-18T10:28:23;47449.88;;;-141.97;37.74
7018;BME280;3549;42.162;24.726;2023-09-18T10:30:49;47446.03;;;-141.97;37.91
7018;BME280;3549;42.162;24.726;2023-09-18T10:33:16;47426.81;;;-141.97;37.85
7018;BME280;3549;42.162;24.726;2023-09-18T10:35:42;47530.59;;;-141.97;37.18
7018;BME280;3549;42.162;24.726;2023-09-18T10:38:09;47611.34;;;-141.97;36.53
7018;BME280;3549;42.162;24.726;2023-09-18T10:40:36;47657.47;;;-141.97;36.99
7018;BME280;3549;42.162;24.726;2023-09-18T10:43:03;47374.94;;;-141.97;37.28
7018;BME280;3549;42.162;24.726;2023-09-18T10:45:30;47396.06;;;-141.97;36.04
7018;BME280;3549;42.162;24.726;2023-09-18T10:47:56;47388.38;;;-141.97;35.67
7018;BME280;3549;42.162;24.726;2023-09-18T10:50:23;47449.88;;;-141.97;35.88
7018;BME280;3549;42.162;24.726;2023-09-18T10:52:50;47461.41;;;-141.97;37.30
7018;BME280;3549;42.162;24.726;2023-09-18T10:55:15;47440.28;;;-141.97;38.09
7018;BME280;3549;42.162;24.726;2023-09-18T10:57:55;47436.44;;;-141.97;37.38
7018;BME280;3549;42.162;24.726;2023-09-18T11:00:23;47388.38;;;-141.97;36.94
7018;BME280;3549;42.162;24.726;2023-09-18T11:02:54;47446.03;;;-141.97;37.25
7018;BME280;3549;42.162;24.726;2023-09-18T11:05:35;47398.00;;;-141.97;37.19
7018;BME280;3549;42.162;24.726;2023-09-18T11:08:29;47447.97;;;-141.97;36.75
7018;BME280;3549;42.162;24.726;2023-09-18T11:13:34;47449.88;;;-141.97;37.46
7018;BME280;3549;42.162;24.726;2023-09-18T11:16:13;47640.16;;;-141.97;38.16
7018;BME280;3549;42.162;24.726;2023-09-18T11:18:39;47472.94;;;-141.97;38.12
7018;BME280;3549;42.162;24.726;2023-09-18T11:21:12;47465.25;;;-141.97;37.68
7018;BME280;3549;42.162;24.726;2023-09-18T11:23:39;47465.25;;;-141.97;37.49
7018;BME280;3549;42.162;24.726;2023-09-18T11:26:11;47369.16;;;-141.97;37.33
7018;BME280;3549;42.162;24.726;2023-09-18T11:28:37;47594.03;;;-141.97;36.62
7018;BME280;3549;42.162;24.726;2023-09-18T11:31:04;47369.16;;;-141.97;36.69
7018;BME280;3549;42.162;24.726;2023-09-18T11:33:41;47638.25;;;-141.97;36.47
7018;BME280;3549;42.162;24.726;2023-09-18T11:36:13;47396.06;;;-141.97;35.93
7018;BME280;3549;42.162;24.726;2023-09-18T11:38:55;47644.00;;;-141.97;34.94
7018;BME280;3549;42.162;24.726;2023-09-18T11:41:29;47653.63;;;-141.97;35.61
7018;BME280;3549;42.162;24.726;2023-09-18T11:46:32;47442.19;;;-141.97;34.83
7018;BME280;3549;42.162;24.726;2023-09-18T11:48:58;47432.59;;;-141.97;34.68
7018;BME280;3549;42.162;24.726;2023-09-18T11:51:25;47507.53;;;-141.97;34.68
7018;BME280;3549;42.162;24.726;2023-09-18T11:53:53;47394.16;;;-141.97;35.20
7018;BME280;3549;42.162;24.726;2023-09-18T11:56:20;47438.34;;;-141.97;35.07
7018;BME280;3549;42.162;24.726;2023-09-18T11:58:47;47251.94;;;-141.97;35.14
7018;BME280;3549;42.162;24.726;2023-09-18T12:01:14;47349.94;;;-141.97;34.12
7018;BME280;3549;42.162;24.726;2023-09-18T12:03:40;47284.59;;;-141.97;32.39
7018;BME280;3549;42.162;24.726;2023-09-18T12:06:06;47661.31;;;-141.97;32.36
7018;BME280;3549;42.162;24.726;2023-09-18T12:08:34;47288.44;;;-141.97;32.45
7018;BME280;3549;42.162;24.726;2023-09-18T12:11:04;47373.00;;;-141.97;31.33
7018;BME280;3549;42.162;24.726;2023-09-18T12:13:33;47326.88;;;-141.97;30.89
7018;BME280;3549;42.162;24.726;2023-09-18T12:16:00;47538.28;;;-141.97;31.28
7018;BME280;3549;42.162;24.726;2023-09-18T12:18:27;47244.25;;;-141.97;31.34
7018;BME280;3549;42.162;24.726;2023-09-18T12:20:54;47257.69;;;-141.97;31.00
7018;BME280;3549;42.162;24.726;2023-09-18T12:23:21;47419.13;;;-141.97;30.30
7018;BME280;3549;42.162;24.726;2023-09-18T12:25:49;47346.09;;;-141.97;30.25
7018;BME280;3549;42.162;24.726;2023-09-18T12:28:16;47369.16;;;-141.97;30.18
7018;BME280;3549;42.162;24.726;2023-09-18T12:30:43;47280.75;;;-141.97;30.22
7018;BME280;3549;42.162;24.726;2023-09-18T12:33:12;47334.56;;;-141.97;29.74
7018;BME280;3549;42.162;24.726;2023-09-18T12:35:40;47373.00;;;-141.97;30.14
7018;BME280;3549;42.162;24.726;2023-09-18T12:38:26;47326.88;;;-141.97;29.78
7018;BME280;3549;42.162;24.726;2023-09-18T12:40:53;47609.41;;;-141.97;29.90
7018;BME280;3549;42.162;24.726;2023-09-18T12:43:20;47494.09;;;-141.97;30.04
7018;BME280;3549;42.162;24.726;2023-09-18T12:45:48;47232.72;;;-141.97;30.43
7018;BME280;3549;42.162;24.726;2023-09-18T12:48:14;47259.63;;;-141.97;31.56
7018;BME280;3549;42.162;24.726;2023-09-18T12:50:41;47373.00;;;-141.97;31.40
7018;BME280;3549;42.162;24.726;2023-09-18T12:53:08;47317.28;;;-141.97;30.37
7018;BME280;3549;42.162;24.726;2023-09-18T12:55:34;47619.03;;;-141.97;30.07
7018;BME280;3549;42.162;24.726;2023-09-18T12:58:00;47294.22;;;-141.97;29.38
7018;BME280;3549;42.162;24.726;2023-09-18T13:00:30;47230.78;;;-141.97;29.09
7018;BME280;3549;42.162;24.726;2023-09-18T13:02:56;47094.34;;;-141.97;28.25